Time;durP1;ratioP1;P1;durP2;ratioP2;P2;SDS_P1;SDS_P2;PMS_P1;PMS_P2;Temp;Humidity;BMP_temperature;BMP_pressure;BME280_temperature;BME280_humidity;BME280_pressure;Samples;Min_cycle;Max_cycle;Signal;HPM_P1;HPM_P2
2023/02/12 00:02:22;;;;;;;41.58;25.95;;;;;;;-3.69;99.98;95715.47;5078553;28;20028;-75
2023/02/12 00:04:47;;;;;;;47.33;26.67;;;;;;;-3.67;100.00;95718.72;5079669;28;20016;-76
2023/02/12 00:07:13;;;;;;;41.15;24.83;;;;;;;-3.84;100.00;95710.16;5047407;28;20035;-75
2023/02/12 00:09:38;;;;;;;36.47;23.60;;;;;;;-4.00;100.00;95718.47;5079045;28;20107;-75
2023/02/12 00:12:04;;;;;;;45.70;25.08;;;;;;;-4.10;100.00;95720.56;5090644;28;20051;-75
2023/02/12 00:14:29;;;;;;;47.55;26.65;;;;;;;-4.15;100.00;95703.94;5079562;28;20024;-75
2023/02/12 00:16:55;;;;;;;43.08;24.45;;;;;;;-4.14;100.00;95716.50;5077172;28;20031;-75
2023/02/12 00:19:20;;;;;;;42.65;24.42;;;;;;;-4.19;100.00;95718.41;5074959;28;20027;-75
2023/02/12 00:21:46;;;;;;;41.47;24.30;;;;;;;-4.00;100.00;95715.94;5075765;28;20020;-75
2023/02/12 00:24:11;;;;;;;41.35;24.38;;;;;;;-3.81;100.00;95715.09;5078336;28;20024;-76
2023/02/12 00:26:36;;;;;;;42.92;25.73;;;;;;;-3.74;100.00;95713.94;5077997;28;20078;-76
2023/02/12 00:29:02;;;;;;;42.83;25.33;;;;;;;-3.66;100.00;95703.47;5058391;28;20036;-75
2023/02/12 00:31:29;;;;;;;47.70;27.50;;;;;;;-3.49;100.00;95711.16;5082070;28;20507;-75
2023/02/12 00:33:55;;;;;;;40.70;24.65;;;;;;;-3.55;100.00;95716.47;5060533;28;20618;-75
2023/02/12 00:36:23;;;;;;;40.92;24.83;;;;;;;-3.80;100.00;95716.75;5072304;28;20028;-74
2023/02/12 00:38:51;;;;;;;40.22;25.20;;;;;;;-3.77;100.00;95716.59;5063551;28;20057;-74
2023/02/12 00:41:18;;;;;;;39.53;25.90;;;;;;;-3.58;100.00;95706.50;5054961;28;20826;-74
2023/02/12 00:43:43;;;;;;;44.88;25.83;;;;;;;-3.56;100.00;95708.97;5077066;28;20044;-74
2023/02/12 00:46:09;;;;;;;44.88;26.70;;;;;;;-3.55;100.00;95705.53;5080729;28;20034;-74
2023/02/12 00:48:35;;;;;;;47.50;28.38;;;;;;;-3.57;100.00;95697.19;5064598;28;20052;-74
2023/02/12 00:51:00;;;;;;;45.72;27.17;;;;;;;-3.54;100.00;95692.84;5071035;28;20048;-74
2023/02/12 00:53:26;;;;;;;51.22;27.23;;;;;;;-3.49;100.00;95688.38;5081232;28;20038;-74
2023/02/12 00:55:51;;;;;;;46.20;25.88;;;;;;;-3.50;100.00;95678.34;5082580;28;20038;-74
2023/02/12 00:58:17;;;;;;;48.50;27.83;;;;;;;-3.41;100.00;95666.09;5080298;28;20024;-74
2023/02/12 01:00:42;;;;;;;52.60;27.52;;;;;;;-3.47;100.00;95663.00;5068630;28;20371;-74
2023/02/12 01:03:08;;;;;;;43.15;26.52;;;;;;;-3.34;100.00;95656.50;5079975;28;20499;-75
2023/02/12 01:05:34;;;;;;;52.80;29.83;;;;;;;-3.51;100.00;95662.31;5081246;28;20054;-75
2023/02/12 01:08:00;;;;;;;43.65;27.80;;;;;;;-3.63;100.00;95662.06;5094120;28;20111;-75
2023/02/12 01:10:26;;;;;;;48.15;29.50;;;;;;;-3.58;100.00;95662.66;5088556;28;20107;-75
2023/02/12 01:12:51;;;;;;;45.97;26.83;;;;;;;-3.62;100.00;95664.50;5087742;28;20110;-75
2023/02/12 01:15:18;;;;;;;40.38;25.20;;;;;;;-3.54;100.00;95669.22;5080199;28;20020;-75
2023/02/12 01:17:44;;;;;;;39.65;25.65;;;;;;;-3.50;100.00;95678.34;5080921;28;20044;-75
2023/02/12 01:20:13;;;;;;;41.75;25.25;;;;;;;-3.47;100.00;95680.72;5058774;28;20051;-75
2023/02/12 01:22:39;;;;;;;40.25;24.45;;;;;;;-3.48;100.00;95667.25;5078872;28;20024;-75
2023/02/12 01:25:05;;;;;;;40.13;26.33;;;;;;;-3.29;100.00;95673.13;5069837;28;20486;-73
2023/02/12 01:27:31;;;;;;;43.35;25.48;;;;;;;-3.17;100.00;95671.72;5067791;28;20039;-75
2023/02/12 01:29:56;;;;;;;33.30;22.73;;;;;;;-3.21;100.00;95665.16;5068920;28;20482;-75
2023/02/12 01:32:22;;;;;;;42.78;25.50;;;;;;;-3.21;100.00;95677.81;5075966;28;20093;-75
2023/02/12 01:34:48;;;;;;;38.72;25.20;;;;;;;-3.16;100.00;95673.38;5056007;28;20157;-75
2023/02/12 01:37:13;;;;;;;41.67;26.08;;;;;;;-3.20;100.00;95665.09;5067440;28;20747;-75
2023/02/12 01:39:39;;;;;;;40.72;26.17;;;;;;;-3.24;100.00;95662.75;5069060;28;20028;-75
2023/02/12 01:42:05;;;;;;;38.58;24.88;;;;;;;-3.27;100.00;95655.31;5070179;28;20025;-75
2023/02/12 01:44:33;;;;;;;41.92;26.70;;;;;;;-3.13;100.00;95650.44;5053614;28;20024;-75
2023/02/12 01:47:04;;;;;;;41.88;24.88;;;;;;;-2.99;100.00;95654.88;5058849;28;20082;-74
2023/02/12 01:49:42;;;;;;;39.15;24.77;;;;;;;-2.85;100.00;95643.19;5069664;28;20420;-75
2023/02/12 01:52:13;;;;;;;41.28;25.17;;;;;;;-2.78;100.00;95634.41;5068902;28;20024;-75
2023/02/12 01:54:39;;;;;;;41.80;25.95;;;;;;;-2.89;100.00;95638.34;5065524;28;20547;-75
2023/02/12 01:57:06;;;;;;;44.03;26.27;;;;;;;-2.87;100.00;95639.91;5069027;28;20024;-74
2023/02/12 01:59:32;;;;;;;40.05;25.70;;;;;;;-3.21;100.00;95640.66;5065653;28;20060;-74
2023/02/12 02:01:57;;;;;;;46.75;27.48;;;;;;;-3.34;100.00;95639.59;5068837;28;20563;-74
2023/02/12 02:04:27;;;;;;;51.35;28.80;;;;;;;-3.18;100.00;95643.97;5057313;28;20037;-74
2023/02/12 02:06:57;;;;;;;44.08;25.83;;;;;;;-2.96;100.00;95635.28;5067845;28;20848;-74
2023/02/12 02:09:23;;;;;;;40.05;24.77;;;;;;;-2.82;100.00;95622.75;5071150;28;20036;-74
2023/02/12 02:14:32;;;;;;;44.72;27.98;;;;;;;-2.99;100.00;95634.59;5063531;28;20097;-74
2023/02/12 02:17:01;;;;;;;48.05;30.50;;;;;;;-3.12;100.00;95631.84;5067391;28;20031;-74
2023/02/12 02:19:48;;;;;;;49.03;28.73;;;;;;;-3.18;100.00;95642.25;5064129;28;20135;-75
2023/02/12 02:22:23;;;;;;;55.35;30.45;;;;;;;-3.22;100.00;95655.94;5076302;28;20139;-74
2023/02/12 02:25:09;;;;;;;46.97;27.60;;;;;;;-3.22;100.00;95641.56;5052378;28;20032;-74
2023/02/12 02:28:10;;;;;;;48.50;29.42;;;;;;;-3.16;100.00;95647.22;5065104;28;20501;-74
2023/02/12 02:30:50;;;;;;;45.28;26.13;;;;;;;-3.39;100.00;95633.09;5057890;28;20059;-74
2023/02/12 02:33:20;;;;;;;43.90;25.25;;;;;;;-3.26;100.00;95647.66;5063216;28;20067;-74
2023/02/12 02:35:52;;;;;;;;;;;;;;;-3.28;100.00;95641.03;5049333;28;20039;-74
2023/02/12 02:38:23;;;;;;;46.45;26.95;;;;;;;-3.11;100.00;95638.50;5062256;28;19946;-74
2023/02/12 02:41:01;;;;;;;43.38;27.02;;;;;;;-3.09;100.00;95651.94;5048961;28;20033;-74
2023/02/12 02:43:29;;;;;;;47.17;27.98;;;;;;;-2.96;100.00;95639.53;5069344;28;20549;-75
2023/02/12 02:46:01;;;;;;;42.55;26.75;;;;;;;-2.69;99.76;95646.63;5069972;28;20028;-75
2023/02/12 02:48:31;;;;;;;44.05;27.75;;;;;;;-2.64;99.70;95638.81;5069570;28;20075;-75
2023/02/12 02:51:04;;;;;;;46.08;26.63;;;;;;;-2.44;99.74;95640.34;5069535;28;20032;-75
2023/02/12 02:53:37;;;;;;;52.80;27.80;;;;;;;-2.42;99.18;95638.56;5069114;28;20028;-74
2023/02/12 02:56:06;;;;;;;41.78;26.92;;;;;;;-2.42;99.36;95644.44;5057219;28;20111;-74
2023/02/12 02:58:35;;;;;;;44.13;26.13;;;;;;;-2.39;99.13;95651.91;5075363;28;20110;-74
2023/02/12 03:01:11;;;;;;;46.08;26.50;;;;;;;-2.46;99.61;95644.66;5067450;28;20428;-74
2023/02/12 03:03:45;;;;;;;46.28;27.27;;;;;;;-2.53;100.00;95656.00;5068893;28;20550;-74
2023/02/12 03:06:19;;;;;;;45.95;27.20;;;;;;;-2.60;100.00;95664.81;5053085;28;20036;-74
2023/02/12 03:08:55;;;;;;;46.33;27.55;;;;;;;-2.64;99.89;95659.06;5072646;28;20050;-74
2023/02/12 03:11:26;;;;;;;45.53;26.83;;;;;;;-2.74;99.70;95653.63;5080657;28;20032;-74
2023/02/12 03:13:59;;;;;;;47.13;28.52;;;;;;;-2.76;99.97;95652.88;5049806;28;20035;-75
2023/02/12 03:16:28;;;;;;;45.67;27.10;;;;;;;-2.81;99.66;95637.06;5065776;28;20374;-74
2023/02/12 03:19:00;;;;;;;46.70;28.83;;;;;;;-2.80;100.00;95643.78;5067256;28;20474;-74
2023/02/12 03:21:31;;;;;;;43.90;27.52;;;;;;;-2.82;100.00;95637.13;5054650;28;20029;-75
2023/02/12 03:24:18;;;;;;;45.45;28.45;;;;;;;-2.70;100.00;95631.50;5069964;28;20028;-74
2023/02/12 03:26:51;;;;;;;45.83;28.20;;;;;;;-2.68;100.00;95637.31;5068225;28;20039;-74
2023/02/12 03:29:16;;;;;;;48.40;28.48;;;;;;;-2.64;100.00;95627.84;5062771;28;20048;-74
2023/02/12 03:31:42;;;;;;;47.78;29.77;;;;;;;-2.57;100.00;95636.78;5067695;28;20042;-74
2023/02/12 03:34:33;;;;;;;42.75;27.27;;;;;;;-2.51;100.00;95632.25;5064840;28;20032;-75
2023/02/12 03:37:07;;;;;;;41.97;25.75;;;;;;;-2.40;98.89;95627.44;5062115;28;20460;-74
2023/02/12 03:39:51;;;;;;;44.95;27.17;;;;;;;-2.41;98.56;95638.47;5048984;28;20301;-75
2023/02/12 03:42:41;;;;;;;43.45;26.15;;;;;;;-2.42;98.56;95634.31;5070446;28;20493;-75
2023/02/12 03:45:06;;;;;;;42.95;25.83;;;;;;;-2.27;98.17;95631.00;5054829;28;20093;-75
2023/02/12 03:48:07;;;;;;;42.95;26.48;;;;;;;-2.14;97.42;95628.66;5067522;28;20086;-75
2023/02/12 03:50:32;;;;;;;;;;;;;;;-2.04;97.08;95634.09;5067525;28;20602;-74
2023/02/12 03:52:57;;;;;;;40.53;24.45;;;;;;;-2.08;97.71;95627.53;5073108;28;19916;-75
2023/02/12 03:55:23;;;;;;;41.10;26.20;;;;;;;-2.13;97.34;95632.84;5065394;28;20406;-75
2023/02/12 03:57:52;;;;;;;44.65;27.50;;;;;;;-2.09;98.04;95638.59;5065617;28;20040;-75
2023/02/12 04:00:20;;;;;;;46.03;27.23;;;;;;;-2.07;99.39;95636.78;5065045;28;20029;-75
2023/02/12 04:02:47;;;;;;;46.60;29.08;;;;;;;-1.90;99.97;95632.50;5068274;28;20123;-75
2023/02/12 04:05:26;;;;;;;45.53;28.88;;;;;;;-1.80;100.00;95632.84;5068845;28;20524;-75
2023/02/12 04:07:54;;;;;;;49.30;28.98;;;;;;;-1.74;99.86;95633.34;5071473;28;20020;-75
2023/02/12 04:10:26;;;;;;;47.22;28.77;;;;;;;-1.68;99.27;95627.13;5069613;28;20106;-75
2023/02/12 04:13:20;;;;;;;53.25;29.05;;;;;;;-1.68;99.67;95617.78;5063819;28;20110;-75
2023/02/12 04:16:04;;;;;;;46.28;28.08;;;;;;;-1.65;99.61;95612.56;5061225;28;20063;-75
2023/02/12 04:18:40;;;;;;;49.83;29.00;;;;;;;-1.62;99.94;95614.94;5071164;28;20032;-75
2023/02/12 04:21:11;;;;;;;46.78;29.48;;;;;;;-1.69;100.00;95613.59;5069380;28;20056;-75
2023/02/12 04:24:19;;;;;;;45.70;28.98;;;;;;;-1.67;100.00;95621.16;5071851;28;20089;-75
2023/02/12 04:26:48;;;;;;;47.33;28.00;;;;;;;-1.70;99.99;95616.22;5051004;28;20040;-75
2023/02/12 04:29:19;;;;;;;50.78;30.92;;;;;;;-1.67;100.00;95626.22;5072785;28;20078;-75
2023/02/12 04:32:10;;;;;;;44.78;29.27;;;;;;;-1.66;100.00;95622.78;5056348;28;20036;-75
2023/02/12 04:34:56;;;;;;;42.80;27.52;;;;;;;-1.63;100.00;95628.50;5065438;28;20043;-74
2023/02/12 04:37:27;;;;;;;43.38;27.90;;;;;;;-1.57;100.00;95632.44;5069812;28;20510;-75
2023/02/12 04:39:53;;;;;;;44.00;27.98;;;;;;;-1.52;100.00;95629.66;5068085;28;20494;-75
2023/02/12 04:42:19;;;;;;;43.03;26.75;;;;;;;-1.42;99.41;95635.91;5070789;28;20028;-75
2023/02/12 04:44:44;;;;;;;42.20;28.33;;;;;;;-1.42;99.46;95633.34;5070070;28;20035;-74
2023/02/12 04:47:12;;;;;;;48.35;28.23;;;;;;;-1.42;99.60;95636.72;5071040;28;20037;-75
2023/02/12 04:49:38;;;;;;;50.30;28.13;;;;;;;-1.43;100.00;95639.31;5065314;28;20102;-74
2023/02/12 04:52:03;;;;;;;42.70;28.35;;;;;;;-1.46;100.00;95642.03;5069848;28;20465;-75
2023/02/12 04:54:29;;;;;;;45.80;29.58;;;;;;;-1.40;100.00;95646.78;5067264;28;20023;-75
2023/02/12 04:56:54;;;;;;;44.65;28.90;;;;;;;-1.40;100.00;95641.69;5069608;28;20107;-75
2023/02/12 04:59:20;;;;;;;44.05;30.02;;;;;;;-1.43;100.00;95641.88;5069432;28;20089;-75
2023/02/12 05:01:46;;;;;;;50.13;30.30;;;;;;;-1.42;100.00;95651.97;5069739;28;20541;-75
2023/02/12 05:04:13;;;;;;;45.47;29.58;;;;;;;-1.40;100.00;95647.59;5085904;28;20070;-74
2023/02/12 05:06:39;;;;;;;43.70;28.85;;;;;;;-1.39;100.00;95645.88;5075453;28;20130;-75
2023/02/12 05:09:06;;;;;;;46.65;30.38;;;;;;;-1.43;100.00;95644.41;5073235;28;20488;-74
2023/02/12 05:11:32;;;;;;;51.60;31.90;;;;;;;-1.41;100.00;95643.41;5079537;28;20038;-75
2023/02/12 05:13:58;;;;;;;49.13;30.23;;;;;;;-1.45;100.00;95647.03;5086440;28;20024;-75
2023/02/12 05:16:24;;;;;;;49.78;29.50;;;;;;;-1.44;100.00;95655.44;5094214;28;20035;-75
2023/02/12 05:18:49;;;;;;;51.35;31.17;;;;;;;-1.43;100.00;95645.22;5090455;28;20027;-75
2023/02/12 05:21:15;;;;;;;49.17;30.08;;;;;;;-1.38;100.00;95645.00;5082481;28;20028;-75
2023/02/12 05:23:40;;;;;;;48.67;29.73;;;;;;;-1.39;100.00;95658.59;5078815;28;20493;-74
2023/02/12 05:26:16;;;;;;;49.88;30.70;;;;;;;-1.38;100.00;95660.22;5079073;28;20028;-75
2023/02/12 05:28:42;;;;;;;50.70;30.02;;;;;;;-1.41;100.00;95662.94;5083612;28;20054;-75
2023/02/12 05:31:15;;;;;;;49.35;30.63;;;;;;;-1.40;100.00;95669.63;5067178;28;20032;-74
2023/02/12 05:33:44;;;;;;;46.60;29.00;;;;;;;-1.41;100.00;95673.09;5093007;28;20031;-75
2023/02/12 05:36:16;;;;;;;51.40;30.02;;;;;;;-1.36;100.00;95674.47;5087899;28;20765;-75
2023/02/12 05:38:42;;;;;;;48.58;29.75;;;;;;;-1.33;100.00;95673.50;5060081;28;20044;-75
2023/02/12 05:41:12;;;;;;;45.53;29.75;;;;;;;-1.30;100.00;95686.03;5058113;28;20490;-75
2023/02/12 05:43:38;;;;;;;46.65;29.40;;;;;;;-1.30;100.00;95691.94;5067827;28;20689;-75
2023/02/12 05:46:05;;;;;;;48.30;28.92;;;;;;;-1.26;100.00;95695.13;5071222;28;20051;-75
2023/02/12 05:48:31;;;;;;;43.58;29.55;;;;;;;-1.26;100.00;95695.97;5061155;28;20073;-75
2023/02/12 05:51:03;;;;;;;47.80;31.25;;;;;;;-1.25;100.00;95696.75;5070220;28;20021;-74
2023/02/12 05:53:28;;;;;;;47.17;29.08;;;;;;;-1.25;100.00;95701.84;5072268;28;20028;-75
2023/02/12 05:55:54;;;;;;;48.38;30.50;;;;;;;-1.21;100.00;95700.78;5073793;28;20024;-75
2023/02/12 05:58:19;;;;;;;58.28;30.05;;;;;;;-1.14;100.00;95712.25;5068034;28;20032;-75
2023/02/12 06:00:45;;;;;;;46.65;29.90;;;;;;;-1.17;100.00;95712.41;5071760;28;20082;-75
2023/02/12 06:03:10;;;;;;;50.17;30.98;;;;;;;-1.14;100.00;95707.19;5067257;28;20052;-76
2023/02/12 06:05:36;;;;;;;49.78;31.13;;;;;;;-1.07;100.00;95705.97;5069694;28;20111;-75
2023/02/12 06:08:01;;;;;;;48.70;30.42;;;;;;;-1.04;100.00;95712.59;5068047;28;20032;-75
2023/02/12 06:10:26;;;;;;;47.28;29.45;;;;;;;-0.97;100.00;95711.38;5049725;28;20031;-75
2023/02/12 06:12:53;;;;;;;48.33;30.52;;;;;;;-0.95;100.00;95712.09;5080239;28;20039;-75
2023/02/12 06:15:19;;;;;;;47.25;30.45;;;;;;;-0.97;100.00;95702.03;5053441;28;20466;-75
2023/02/12 06:17:44;;;;;;;43.38;28.17;;;;;;;-1.00;100.00;95704.72;5046336;28;20119;-75
2023/02/12 06:20:10;;;;;;;43.40;28.52;;;;;;;-0.91;100.00;95713.56;5049471;28;20036;-75
2023/02/12 06:22:37;;;;;;;43.47;27.80;;;;;;;-0.78;100.00;95710.28;5067168;28;20382;-75
2023/02/12 06:25:03;;;;;;;42.10;25.98;;;;;;;-0.63;100.00;95714.53;5068180;28;20024;-75
2023/02/12 06:27:28;;;;;;;34.83;24.13;;;;;;;-0.56;100.00;95715.81;5065111;28;20093;-75
2023/02/12 06:29:54;;;;;;;38.50;24.17;;;;;;;-0.51;100.00;95715.56;5067681;28;20032;-75
2023/02/12 06:32:19;;;;;;;38.90;25.15;;;;;;;-0.43;100.00;95717.69;5065483;28;20096;-74
2023/02/12 06:34:45;;;;;;;43.53;26.98;;;;;;;-0.49;100.00;95718.84;5058240;28;20082;-75
2023/02/12 06:37:11;;;;;;;44.70;28.58;;;;;;;-0.45;100.00;95714.41;5071119;28;20043;-75
2023/02/12 06:39:36;;;;;;;37.78;25.02;;;;;;;-0.45;100.00;95709.34;5047471;28;20055;-75
2023/02/12 06:42:02;;;;;;;37.42;25.63;;;;;;;-0.41;100.00;95709.06;5068638;28;20505;-75
2023/02/12 06:44:27;;;;;;;35.95;25.20;;;;;;;-0.38;100.00;95708.06;5047508;28;20036;-75
2023/02/12 06:46:53;;;;;;;36.33;24.02;;;;;;;-0.30;100.00;95706.75;5072429;28;20049;-75
2023/02/12 06:49:18;;;;;;;37.00;23.58;;;;;;;-0.24;100.00;95710.66;5070597;28;20038;-74
2023/02/12 06:51:44;;;;;;;33.72;23.33;;;;;;;-0.24;100.00;95706.38;5068114;28;20584;-75
2023/02/12 06:54:14;;;;;;;34.35;23.23;;;;;;;-0.17;100.00;95711.94;5050273;28;20507;-75
2023/02/12 06:56:39;;;;;;;34.92;22.75;;;;;;;-0.16;100.00;95714.38;5069166;28;20069;-75
2023/02/12 06:59:05;;;;;;;32.58;21.67;;;;;;;-0.10;100.00;95723.44;5056908;28;20040;-74
2023/02/12 07:01:30;;;;;;;33.15;22.27;;;;;;;-0.15;100.00;95713.50;5064488;28;20141;-74
2023/02/12 07:04:03;;;;;;;35.25;23.25;;;;;;;-0.12;100.00;95722.66;5085464;28;20015;-74
2023/02/12 07:06:30;;;;;;;33.97;21.98;;;;;;;-0.03;100.00;95717.06;5082299;28;20149;-75
2023/02/12 07:08:57;;;;;;;32.47;20.90;;;;;;;-0.05;100.00;95724.78;5083171;28;20039;-75
2023/02/12 07:11:27;;;;;;;31.65;21.58;;;;;;;-0.04;100.00;95731.53;5061530;28;20040;-75
2023/02/12 07:13:52;;;;;;;34.90;20.80;;;;;;;-0.04;100.00;95726.44;5075575;28;20104;-75
2023/02/12 07:16:18;;;;;;;30.05;21.42;;;;;;;-0.04;100.00;95731.53;5076673;28;20028;-74
2023/02/12 07:18:43;;;;;;;33.10;21.40;;;;;;;0.00;100.00;95734.72;5070956;28;20546;-74
2023/02/12 07:21:11;;;;;;;34.47;21.17;;;;;;;0.02;100.00;95729.53;5080081;28;20078;-75
2023/02/12 07:23:36;;;;;;;32.33;22.08;;;;;;;-0.02;100.00;95728.88;5056811;28;20535;-74
2023/02/12 07:26:07;;;;;;;28.90;20.52;;;;;;;0.03;100.00;95729.47;5057068;28;20028;-74
2023/02/12 07:28:34;;;;;;;33.13;20.63;;;;;;;0.06;100.00;95723.34;5079263;28;20515;-75
2023/02/12 07:31:08;;;;;;;29.90;20.40;;;;;;;0.05;100.00;95732.72;5078506;28;20700;-75
2023/02/12 07:33:35;;;;;;;32.75;20.05;;;;;;;0.19;100.00;95732.75;5078528;28;20040;-74
2023/02/12 07:36:01;;;;;;;28.92;19.60;;;;;;;0.17;100.00;95736.28;5074271;28;20524;-75
2023/02/12 07:38:27;;;;;;;33.03;21.63;;;;;;;0.05;100.00;95739.53;5049370;28;20639;-74
2023/02/12 07:40:52;;;;;;;32.50;20.83;;;;;;;0.07;100.00;95735.97;5074820;28;20509;-75
2023/02/12 07:43:18;;;;;;;30.73;20.98;;;;;;;0.20;100.00;95747.09;5078732;28;20030;-74
2023/02/12 07:45:43;;;;;;;29.17;19.90;;;;;;;0.28;100.00;95744.94;5080469;28;20028;-74
2023/02/12 07:48:08;;;;;;;29.38;20.38;;;;;;;0.31;100.00;95749.84;5080600;28;20531;-74
2023/02/12 07:50:35;;;;;;;30.23;21.10;;;;;;;0.33;100.00;95748.03;5079293;28;20044;-74
2023/02/12 07:53:01;;;;;;;29.50;20.15;;;;;;;0.50;100.00;95749.59;5081963;28;20035;-75
2023/02/12 07:55:26;;;;;;;30.63;20.10;;;;;;;0.59;100.00;95743.13;5050299;28;20032;-74
2023/02/12 07:57:51;;;;;;;30.45;20.30;;;;;;;0.60;100.00;95734.59;5057684;28;20032;-75
2023/02/12 08:00:17;;;;;;;28.77;20.77;;;;;;;0.74;100.00;95732.03;5069434;28;20417;-75
2023/02/12 08:02:43;;;;;;;34.50;20.95;;;;;;;0.95;100.00;95735.84;5068857;28;20021;-74
2023/02/12 08:05:08;;;;;;;28.70;19.92;;;;;;;0.82;100.00;95735.75;5066088;28;20493;-74
2023/02/12 08:07:33;;;;;;;33.00;22.27;;;;;;;0.75;100.00;95743.84;5049157;28;20050;-74
2023/02/12 08:09:59;;;;;;;28.80;19.77;;;;;;;0.85;100.00;95755.13;5085494;28;20027;-74
2023/02/12 08:12:24;;;;;;;31.65;22.45;;;;;;;0.85;100.00;95755.97;5079414;28;20039;-74
2023/02/12 08:14:50;;;;;;;27.88;19.60;;;;;;;0.86;100.00;95759.34;5069002;28;20077;-74
2023/02/12 08:17:15;;;;;;;32.30;20.77;;;;;;;0.95;100.00;95762.16;5079090;28;20768;-74
2023/02/12 08:19:41;;;;;;;29.60;20.95;;;;;;;1.09;100.00;95757.94;5074751;28;20039;-74
2023/02/12 08:22:06;;;;;;;28.83;20.45;;;;;;;1.04;100.00;95769.25;5082313;28;20425;-75
2023/02/12 08:24:32;;;;;;;28.13;20.33;;;;;;;1.22;100.00;95762.19;5079326;28;20900;-74
2023/02/12 08:26:57;;;;;;;27.60;20.00;;;;;;;1.29;100.00;95768.53;5075952;28;20469;-74
2023/02/12 08:29:28;;;;;;;32.35;21.33;;;;;;;1.43;100.00;95767.69;5068795;28;20123;-74
2023/02/12 08:31:56;;;;;;;33.83;20.65;;;;;;;1.57;100.00;95765.91;5083148;28;20585;-75
2023/02/12 08:34:32;;;;;;;31.70;21.40;;;;;;;1.62;100.00;95775.84;5052324;28;20020;-74
2023/02/12 08:36:58;;;;;;;30.02;21.55;;;;;;;1.52;100.00;95782.44;5075945;28;20054;-74
2023/02/12 08:39:26;;;;;;;29.27;21.08;;;;;;;1.34;100.00;95786.97;5052485;28;20418;-74
2023/02/12 08:41:53;;;;;;;32.80;20.63;;;;;;;1.40;100.00;95781.47;5094632;28;20028;-75
2023/02/12 08:44:19;;;;;;;35.85;22.48;;;;;;;1.21;100.00;95787.78;5082568;28;20035;-75
2023/02/12 08:46:47;;;;;;;31.48;21.75;;;;;;;1.17;100.00;95788.88;5078560;28;20610;-74
2023/02/12 08:49:15;;;;;;;29.45;22.52;;;;;;;1.24;100.00;95787.59;5084059;28;20081;-75
2023/02/12 08:51:44;;;;;;;31.75;21.90;;;;;;;1.37;100.00;95798.69;5066014;28;20067;-74
2023/02/12 08:54:12;;;;;;;35.67;21.77;;;;;;;1.43;100.00;95800.88;5078063;28;20439;-75
2023/02/12 08:56:38;;;;;;;33.10;22.23;;;;;;;1.44;100.00;95805.06;5085874;28;20038;-75
2023/02/12 08:59:04;;;;;;;33.65;24.45;;;;;;;1.44;100.00;95803.34;5084907;28;20036;-75
2023/02/12 09:01:33;;;;;;;33.25;23.05;;;;;;;1.45;100.00;95807.50;5091036;28;20032;-75
2023/02/12 09:04:00;;;;;;;37.30;23.63;;;;;;;1.45;100.00;95807.50;5085733;28;20473;-75
2023/02/12 09:06:26;;;;;;;33.83;23.77;;;;;;;1.47;100.00;95809.97;5078437;28;20043;-75
2023/02/12 09:08:52;;;;;;;32.63;22.70;;;;;;;1.67;100.00;95811.31;5068430;28;20048;-75
2023/02/12 09:11:23;;;;;;;33.10;22.45;;;;;;;1.83;100.00;95811.97;5073383;28;20033;-74
2023/02/12 09:13:49;;;;;;;34.13;22.98;;;;;;;1.87;100.00;95819.34;5070438;28;20511;-75
2023/02/12 09:16:14;;;;;;;35.53;22.65;;;;;;;1.90;100.00;95811.47;5056061;28;20028;-75
2023/02/12 09:18:40;;;;;;;31.42;22.35;;;;;;;2.07;100.00;95826.56;5064217;28;20556;-75
2023/02/12 09:21:11;;;;;;;35.25;24.70;;;;;;;1.95;100.00;95832.44;5065845;28;20035;-75
2023/02/12 09:23:37;;;;;;;34.15;24.35;;;;;;;2.32;100.00;95830.09;5090873;28;20049;-76
2023/02/12 09:26:04;;;;;;;32.53;24.27;;;;;;;2.56;100.00;95833.63;5078794;28;20035;-75
2023/02/12 09:28:30;;;;;;;34.17;24.20;;;;;;;2.65;99.54;95827.91;5091913;28;20020;-74
2023/02/12 09:30:56;;;;;;;35.75;24.10;;;;;;;2.59;99.04;95830.84;5072016;28;20174;-75
2023/02/12 09:33:22;;;;;;;30.60;22.95;;;;;;;3.03;97.60;95827.88;5088139;28;20150;-75
2023/02/12 09:35:47;;;;;;;34.30;22.85;;;;;;;3.48;95.65;95821.38;5074094;28;20146;-75
2023/02/12 09:38:13;;;;;;;39.42;23.55;;;;;;;3.53;93.84;95820.13;5071724;28;20966;-76
2023/02/12 09:40:43;;;;;;;34.58;23.63;;;;;;;4.32;89.31;95811.09;5068910;28;20082;-75
2023/02/12 09:43:24;;;;;;;31.70;24.75;;;;;;;5.29;86.10;95810.56;5067583;28;20528;-77
2023/02/12 09:46:00;;;;;;;28.70;22.00;;;;;;;8.11;70.94;95804.38;5064694;28;20032;-77
2023/02/12 09:48:42;;;;;;;31.60;21.65;;;;;;;5.65;75.15;95803.50;5075992;28;20059;-75
2023/02/12 09:51:09;;;;;;;32.45;22.50;;;;;;;4.24;83.50;95807.34;5076986;28;20497;-75
2023/02/12 09:53:38;;;;;;;28.20;22.80;;;;;;;6.96;72.23;95791.16;5074897;28;20162;-77
2023/02/12 09:56:10;;;;;;;28.70;21.95;;;;;;;9.26;57.52;95787.00;5074211;28;20517;-76
2023/02/12 09:58:58;;;;;;;24.20;21.60;;;;;;;8.38;59.70;95802.00;5074885;28;20032;-77
2023/02/12 10:01:26;;;;;;;26.92;21.10;;;;;;;9.06;57.24;95797.53;5075272;28;20024;-76
2023/02/12 10:03:52;;;;;;;27.70;22.90;;;;;;;7.89;59.39;95808.03;5092613;28;20028;-76
2023/02/12 10:06:24;;;;;;;25.77;22.27;;;;;;;8.81;58.28;95801.53;5059765;28;20021;-78
2023/02/12 10:09:02;;;;;;;27.15;22.05;;;;;;;8.79;56.38;95806.84;5074646;28;20115;-77
2023/02/12 10:12:00;;;;;;;26.75;22.65;;;;;;;7.40;62.31;95811.41;5077761;28;20040;-77
2023/02/12 10:14:25;;;;;;;30.30;22.85;;;;;;;6.86;65.37;95812.50;5076891;28;20024;-77
2023/02/12 10:17:06;;;;;;;29.05;23.35;;;;;;;5.14;73.15;95818.59;5074986;28;20144;-77
2023/02/12 10:19:37;;;;;;;31.73;22.77;;;;;;;5.96;73.11;95825.91;5075706;28;20062;-76
2023/02/12 10:22:40;;;;;;;32.55;24.10;;;;;;;6.29;68.03;95819.84;5074698;28;20668;-77
2023/02/12 10:25:35;;;;;;;30.45;23.48;;;;;;;6.16;71.64;95816.59;5074392;28;20060;-77
2023/02/12 10:28:08;;;;;;;30.40;23.45;;;;;;;5.60;74.28;95821.84;5074974;28;20059;-76
2023/02/12 10:30:44;;;;;;;32.95;24.15;;;;;;;5.81;73.40;95817.59;5059020;28;20036;-77
2023/02/12 10:33:26;;;;;;;34.20;24.48;;;;;;;5.71;74.10;95819.28;5073002;28;20038;-77
2023/02/12 10:36:27;;;;;;;31.42;24.20;;;;;;;5.44;74.43;95821.38;5069578;28;20036;-77
2023/02/12 10:38:58;;;;;;;36.10;25.00;;;;;;;5.39;74.47;95815.81;5044775;28;20121;-76
2023/02/12 10:41:26;;;;;;;32.00;24.30;;;;;;;5.60;74.41;95815.88;5075027;28;20473;-76
2023/02/12 10:43:51;;;;;;;32.97;24.35;;;;;;;5.45;75.03;95811.94;5066591;28;20069;-77
2023/02/12 10:46:17;;;;;;;33.58;25.52;;;;;;;5.14;79.02;95821.16;5072009;28;20463;-77
2023/02/12 10:48:49;;;;;;;33.47;23.30;;;;;;;5.24;78.02;95827.22;5068579;28;20028;-78
2023/02/12 10:51:47;;;;;;;32.65;24.27;;;;;;;5.07;77.09;95814.88;5072269;28;20039;-77
2023/02/12 10:55:00;;;;;;;34.73;24.60;;;;;;;4.92;78.95;95810.88;5061055;28;20552;-76
2023/02/12 10:57:27;;;;;;;37.53;25.67;;;;;;;4.91;79.69;95809.25;5070324;28;20501;-76
2023/02/12 11:00:14;;;;;;;34.83;26.30;;;;;;;4.66;82.88;95815.38;5073801;28;21010;-76
2023/02/12 11:02:39;;;;;;;34.78;25.23;;;;;;;4.76;82.53;95814.59;5059145;28;20027;-76
2023/02/12 11:05:24;;;;;;;33.13;24.73;;;;;;;4.53;83.68;95814.63;5080939;28;20884;-76
2023/02/12 11:07:51;;;;;;;36.53;25.55;;;;;;;4.22;87.08;95819.44;5067063;28;20673;-77
2023/02/12 11:10:27;;;;;;;34.92;25.00;;;;;;;4.35;86.29;95811.69;5065983;28;20026;-76
2023/02/12 11:12:53;;;;;;;30.25;23.73;;;;;;;4.42;86.77;95817.19;5055137;28;20124;-77
2023/02/12 11:15:21;;;;;;;35.90;25.38;;;;;;;4.50;86.68;95814.88;5066996;28;20411;-76
2023/02/12 11:18:00;;;;;;;31.90;24.35;;;;;;;4.48;88.43;95820.13;5070299;28;20785;-76
2023/02/12 11:20:35;;;;;;;33.70;24.95;;;;;;;4.54;85.37;95822.22;5067850;28;20085;-77
2023/02/12 11:23:06;;;;;;;35.97;25.48;;;;;;;4.37;85.95;95812.38;5072568;28;20734;-76
2023/02/12 11:25:35;;;;;;;36.47;24.73;;;;;;;4.68;85.11;95818.66;5075610;28;20171;-76
2023/02/12 11:28:19;;;;;;;35.10;26.23;;;;;;;4.77;85.08;95815.41;5072246;28;20760;-76
2023/02/12 11:30:59;;;;;;;33.08;25.25;;;;;;;4.72;83.91;95805.47;5074208;28;20444;-77